createdAt,value
2023-04-29T00:01:20.130Z,3.90
2023-04-29T00:04:03.027Z,4.47
2023-04-29T00:06:47.144Z,3.72
2023-04-29T00:09:29.775Z,4.13
2023-04-29T00:12:12.424Z,4.03
2023-04-29T00:14:55.002Z,4.18
2023-04-29T00:17:37.864Z,3.92
2023-04-29T00:20:20.511Z,4.47
2023-04-29T00:23:04.463Z,4.03
2023-04-29T00:25:47.046Z,4.32
2023-04-29T00:28:29.633Z,3.97
2023-04-29T00:31:13.095Z,4.00
2023-04-29T00:33:56.253Z,3.85
2023-04-29T00:36:38.913Z,4.30
2023-04-29T00:39:22.967Z,4.30
2023-04-29T00:42:05.547Z,4.07
2023-04-29T00:44:48.169Z,3.97
2023-04-29T00:47:30.771Z,3.70
2023-04-29T00:50:13.421Z,3.70
2023-04-29T00:52:56.045Z,4.07
2023-04-29T00:55:40.081Z,4.22
2023-04-29T00:58:23.955Z,4.50
2023-04-29T01:01:09.272Z,5.00
2023-04-29T01:03:52.343Z,4.15
2023-04-29T01:06:42.400Z,4.57
2023-04-29T01:09:33.550Z,4.60
2023-04-29T01:12:23.361Z,5.50
2023-04-29T01:15:08.087Z,4.75
2023-04-29T01:17:52.822Z,4.93
2023-04-29T01:20:35.664Z,4.78
2023-04-29T01:23:18.332Z,4.53
2023-04-29T01:26:02.398Z,4.90
2023-04-29T01:29:23.041Z,4.90
2023-04-29T01:32:08.911Z,5.43
2023-04-29T01:34:56.181Z,5.63
2023-04-29T01:37:43.388Z,6.53
2023-04-29T01:40:27.613Z,6.65
2023-04-29T01:43:24.664Z,6.90
2023-04-29T01:46:09.963Z,5.90
2023-04-29T01:48:53.651Z,6.45
2023-04-29T01:51:37.208Z,5.63
2023-04-29T01:54:19.973Z,6.25
2023-04-29T01:57:02.665Z,6.15
2023-04-29T01:59:55.386Z,6.05
2023-04-29T02:02:46.911Z,5.85
2023-04-29T02:05:53.578Z,6.10
2023-04-29T02:08:36.249Z,5.90
2023-04-29T02:11:19.004Z,5.88
2023-04-29T02:14:02.105Z,5.60
2023-04-29T02:16:46.662Z,5.32
2023-04-29T02:19:30.319Z,5.28
2023-04-29T02:22:13.473Z,5.43
2023-04-29T02:24:58.197Z,5.50
2023-04-29T02:27:40.808Z,4.97
2023-04-29T02:30:23.483Z,4.88
2023-04-29T02:33:08.638Z,4.95
2023-04-29T02:35:51.504Z,5.18
2023-04-29T02:38:34.145Z,5.22
2023-04-29T02:41:17.495Z,4.88
2023-04-29T02:44:00.416Z,4.97
2023-04-29T02:46:45.415Z,5.32
2023-04-29T02:49:29.503Z,5.63
2023-04-29T02:52:12.736Z,5.25
2023-04-29T02:54:55.321Z,5.03
2023-04-29T02:57:39.162Z,5.88
2023-04-29T03:00:21.883Z,5.45
2023-04-29T03:03:04.668Z,5.85
2023-04-29T03:05:48.680Z,5.10
2023-04-29T03:08:31.372Z,6.03
2023-04-29T03:11:13.933Z,5.90
2023-04-29T03:13:56.575Z,5.53
2023-04-29T03:16:39.277Z,5.57
2023-04-29T03:19:21.890Z,5.25
2023-04-29T03:22:08.248Z,5.13
2023-04-29T03:24:51.029Z,5.68
2023-04-29T03:27:36.446Z,5.65
2023-04-29T03:30:19.196Z,5.50
2023-04-29T03:33:06.298Z,5.60
2023-04-29T03:35:49.012Z,5.60
2023-04-29T03:38:46.175Z,5.97
2023-04-29T03:41:28.905Z,5.85
2023-04-29T03:44:11.783Z,6.03
2023-04-29T03:46:55.523Z,6.10
2023-04-29T03:49:39.407Z,5.30
2023-04-29T03:52:22.416Z,5.45
2023-04-29T03:55:09.448Z,5.55
2023-04-29T03:57:52.792Z,5.57
2023-04-29T04:00:35.491Z,5.75
2023-04-29T04:03:23.857Z,5.55
2023-04-29T04:06:06.683Z,5.43
2023-04-29T04:08:52.791Z,5.20
2023-04-29T04:11:42.197Z,5.20
2023-04-29T04:14:24.970Z,5.82
2023-04-29T04:17:07.585Z,5.18
2023-04-29T04:19:51.268Z,5.57
2023-04-29T04:22:34.070Z,5.32
2023-04-29T04:25:32.853Z,4.95
2023-04-29T04:28:44.974Z,5.22
2023-04-29T04:31:34.432Z,5.20
2023-04-29T04:34:17.120Z,5.53
2023-04-29T04:37:02.073Z,5.60
2023-04-29T04:39:45.842Z,5.25
2023-04-29T04:42:30.651Z,5.70
2023-04-29T04:45:16.002Z,5.72
2023-04-29T04:48:05.164Z,4.85
2023-04-29T04:50:49.816Z,5.85
2023-04-29T04:53:32.441Z,5.50
2023-04-29T04:56:20.662Z,5.80
2023-04-29T04:59:03.654Z,4.60
2023-04-29T05:01:52.178Z,5.70
2023-04-29T05:04:34.803Z,4.95
2023-04-29T05:07:17.431Z,5.25
2023-04-29T05:10:33.355Z,4.78
2023-04-29T05:13:17.605Z,5.65
2023-04-29T05:16:04.603Z,4.63
2023-04-29T05:18:50.330Z,5.07
2023-04-29T05:21:33.125Z,5.22
2023-04-29T05:24:16.566Z,4.43
2023-04-29T05:26:59.810Z,4.72
2023-04-29T05:29:42.527Z,4.38
2023-04-29T05:32:25.495Z,4.88
2023-04-29T05:35:10.192Z,4.78
2023-04-29T05:37:52.803Z,4.50
2023-04-29T05:40:56.728Z,4.43
2023-04-29T05:43:59.578Z,4.50
2023-04-29T05:46:42.266Z,4.15
2023-04-29T05:49:24.909Z,3.85
2023-04-29T05:52:08.852Z,4.22
2023-04-29T05:54:56.439Z,4.25
2023-04-29T05:57:39.217Z,3.97
2023-04-29T06:00:22.003Z,3.72
2023-04-29T06:03:05.147Z,4.00
2023-04-29T06:05:48.466Z,3.83
2023-04-29T06:08:45.139Z,3.58
2023-04-29T06:11:38.828Z,4.13
2023-04-29T06:14:21.396Z,3.70
2023-04-29T06:17:04.544Z,3.75
2023-04-29T06:19:47.184Z,3.88
2023-04-29T06:22:29.888Z,3.90
2023-04-29T06:25:15.850Z,3.90
2023-04-29T06:28:04.353Z,4.13
2023-04-29T06:30:47.493Z,4.22
2023-04-29T06:33:31.156Z,4.63
2023-04-29T06:36:13.823Z,4.97
2023-04-29T06:39:15.042Z,4.85
2023-04-29T06:42:08.833Z,4.50
2023-04-29T06:45:10.504Z,4.75
2023-04-29T06:48:01.968Z,4.32
2023-04-29T06:50:54.539Z,3.97
2023-04-29T06:53:37.144Z,4.00
2023-04-29T06:56:20.178Z,3.78
2023-04-29T06:59:05.465Z,4.35
2023-04-29T07:01:52.073Z,4.32
2023-04-29T07:04:37.571Z,3.70
2023-04-29T07:07:23.241Z,3.90
2023-04-29T07:10:06.949Z,3.60
2023-04-29T07:12:49.628Z,4.15
2023-04-29T07:15:34.739Z,4.18
2023-04-29T07:18:17.430Z,3.70
2023-04-29T07:21:02.064Z,4.13
2023-04-29T07:23:44.907Z,3.60
2023-04-29T07:26:27.572Z,3.70
2023-04-29T07:29:10.225Z,3.88
2023-04-29T07:31:54.361Z,3.38
2023-04-29T07:34:37.249Z,4.20
2023-04-29T07:37:20.001Z,3.63
2023-04-29T07:40:03.990Z,3.80
2023-04-29T07:42:46.690Z,3.38
2023-04-29T07:45:29.345Z,3.72
2023-04-29T07:48:13.412Z,3.38
2023-04-29T07:50:57.233Z,4.03
2023-04-29T07:53:39.887Z,3.65
2023-04-29T07:56:23.172Z,3.75
2023-04-29T07:59:05.864Z,3.85
2023-04-29T08:01:48.508Z,3.90
2023-04-29T08:04:33.394Z,3.17
2023-04-29T08:07:20.939Z,3.58
2023-04-29T08:10:03.620Z,3.50
2023-04-29T08:12:46.737Z,3.40
2023-04-29T08:15:29.876Z,3.58
2023-04-29T08:18:12.635Z,3.55
2023-04-29T08:20:56.630Z,3.40
2023-04-29T08:23:39.526Z,3.38
2023-04-29T08:26:24.018Z,3.58
2023-04-29T08:29:07.625Z,3.65
2023-04-29T08:31:50.744Z,3.55
2023-04-29T08:34:33.521Z,3.47
2023-04-29T08:37:18.604Z,4.15
2023-04-29T08:40:01.650Z,6.95
2023-04-29T08:42:48.752Z,4.00
2023-04-29T08:45:32.368Z,2.47
2023-04-29T08:48:15.646Z,3.55
2023-04-29T08:50:58.452Z,3.65
2023-04-29T08:53:42.455Z,3.60
2023-04-29T08:56:27.885Z,3.80
2023-04-29T08:59:10.677Z,3.47
2023-04-29T09:01:54.187Z,3.75
2023-04-29T09:04:44.404Z,3.67
2023-04-29T09:07:28.401Z,3.97
2023-04-29T09:10:13.069Z,3.42
2023-04-29T09:12:57.232Z,3.78
2023-04-29T09:15:42.019Z,4.20
2023-04-29T09:18:43.768Z,3.80
2023-04-29T09:21:27.337Z,3.25
2023-04-29T09:24:09.930Z,3.60
2023-04-29T09:26:54.092Z,4.55
2023-04-29T09:29:38.549Z,3.90
2023-04-29T09:32:21.751Z,4.57
2023-04-29T09:35:19.293Z,3.53
2023-04-29T09:38:19.655Z,3.45
2023-04-29T09:41:12.008Z,3.85
2023-04-29T09:44:05.648Z,3.17
2023-04-29T09:46:55.600Z,3.97
2023-04-29T09:49:40.726Z,3.85
2023-04-29T09:52:23.391Z,3.45
2023-04-29T09:55:06.260Z,3.63
2023-04-29T09:57:48.901Z,3.63
2023-04-29T10:00:34.762Z,3.60
2023-04-29T10:03:17.579Z,3.53
2023-04-29T10:06:01.053Z,3.35
2023-04-29T10:08:45.029Z,3.33
2023-04-29T10:11:28.084Z,3.17
2023-04-29T10:14:13.174Z,4.78
2023-04-29T10:17:00.458Z,3.78
2023-04-29T10:19:48.410Z,4.18
2023-04-29T10:22:46.128Z,5.95
2023-04-29T10:25:29.163Z,3.40
2023-04-29T10:28:15.854Z,3.83
2023-04-29T10:30:59.110Z,3.92
2023-04-29T10:33:45.857Z,4.10
2023-04-29T10:36:30.438Z,3.95
2023-04-29T10:39:17.573Z,3.78
2023-04-29T10:42:00.286Z,3.90
2023-04-29T10:44:57.761Z,3.30
2023-04-29T10:47:40.471Z,3.60
2023-04-29T10:50:24.669Z,3.67
2023-04-29T10:53:07.281Z,3.20
2023-04-29T10:55:50.194Z,3.67
2023-04-29T10:58:36.997Z,4.47
2023-04-29T11:01:19.665Z,3.35
2023-04-29T11:04:04.787Z,3.60
2023-04-29T11:06:52.978Z,3.25
2023-04-29T11:09:38.605Z,3.63
2023-04-29T11:12:21.398Z,3.70
2023-04-29T11:15:05.381Z,3.78
2023-04-29T11:17:48.076Z,3.78
2023-04-29T11:20:30.789Z,3.72
2023-04-29T11:23:14.951Z,3.95
2023-04-29T11:25:57.622Z,4.18
2023-04-29T11:28:43.026Z,4.00
2023-04-29T11:31:29.980Z,3.88
2023-04-29T11:34:12.660Z,3.80
2023-04-29T11:36:55.342Z,4.10
2023-04-29T11:39:39.382Z,4.45
2023-04-29T11:42:22.557Z,4.10
2023-04-29T11:45:06.916Z,4.00
2023-04-29T11:47:50.746Z,3.78
2023-04-29T11:50:36.729Z,3.35
2023-04-29T11:53:20.901Z,3.88
2023-04-29T11:56:05.013Z,3.17
2023-04-29T11:58:47.656Z,3.35
2023-04-29T12:01:31.098Z,3.50
2023-04-29T12:04:13.900Z,3.20
2023-04-29T12:06:58.117Z,3.13
2023-04-29T12:09:44.811Z,2.80
2023-04-29T12:12:29.261Z,3.20
2023-04-29T12:15:12.610Z,3.40
2023-04-29T12:17:55.448Z,3.22
2023-04-29T12:20:39.225Z,3.22
2023-04-29T12:23:23.258Z,3.30
2023-04-29T12:26:05.926Z,3.45
2023-04-29T12:28:54.830Z,3.22
2023-04-29T12:31:37.763Z,3.25
2023-04-29T12:34:25.850Z,3.05
2023-04-29T12:37:08.443Z,2.88
2023-04-29T12:39:51.073Z,2.63
2023-04-29T12:42:34.184Z,2.67
2023-04-29T12:45:32.282Z,3.08
2023-04-29T12:48:25.422Z,2.40
2023-04-29T12:51:12.837Z,2.08
2023-04-29T12:53:55.546Z,1.98
2023-04-29T12:56:38.921Z,2.15
2023-04-29T12:59:21.548Z,2.28
2023-04-29T13:02:05.684Z,2.38
2023-04-29T13:04:48.795Z,2.08
2023-04-29T13:07:31.963Z,2.63
2023-04-29T13:10:15.011Z,3.00
2023-04-29T13:12:57.692Z,3.10
2023-04-29T13:15:40.318Z,2.53
2023-04-29T13:18:24.341Z,3.10
2023-04-29T13:21:06.949Z,2.80
2023-04-29T13:23:49.740Z,2.70
2023-04-29T13:26:32.658Z,2.40
2023-04-29T13:29:15.291Z,2.38
2023-04-29T13:31:57.987Z,2.28
2023-04-29T13:34:43.390Z,2.30
2023-04-29T13:37:26.364Z,2.38
2023-04-29T13:40:09.602Z,1.83
2023-04-29T13:43:02.058Z,2.00
2023-04-29T13:45:48.625Z,1.60
2023-04-29T13:49:03.276Z,1.67
2023-04-29T13:52:20.116Z,1.48
2023-04-29T13:54:59.102Z,1.55
2023-04-29T14:01:01.362Z,1.17
2023-04-29T14:03:31.472Z,1.60
2023-04-29T14:06:17.347Z,1.30
2023-04-29T14:09:03.733Z,1.33
2023-04-29T14:11:46.825Z,1.40
2023-04-29T14:14:29.429Z,1.60
2023-04-29T14:17:12.152Z,1.65
2023-04-29T14:19:54.965Z,1.77
2023-04-29T14:22:37.773Z,1.60
2023-04-29T14:25:21.836Z,1.42
2023-04-29T14:28:05.020Z,1.50
2023-04-29T14:30:47.645Z,1.67
2023-04-29T14:33:30.386Z,1.20
2023-04-29T14:36:12.990Z,1.30
2023-04-29T14:38:55.685Z,1.23
2023-04-29T14:41:39.868Z,1.10
2023-04-29T14:44:22.501Z,1.10
2023-04-29T14:47:05.276Z,1.02
2023-04-29T14:49:48.050Z,0.93
2023-04-29T14:52:30.896Z,1.00
2023-04-29T14:55:13.559Z,0.82
2023-04-29T14:57:57.568Z,1.05
2023-04-29T15:00:40.253Z,0.75
2023-04-29T15:03:24.010Z,0.77
2023-04-29T15:06:06.854Z,0.65
2023-04-29T15:08:49.493Z,0.60
2023-04-29T15:11:32.928Z,0.68
2023-04-29T15:14:17.003Z,0.80
2023-04-29T15:16:59.604Z,0.90
2023-04-29T15:19:42.212Z,1.15
2023-04-29T15:22:24.851Z,0.90
2023-04-29T15:25:07.872Z,1.05
2023-04-29T15:27:50.534Z,1.25
2023-04-29T15:30:35.881Z,1.20
2023-04-29T15:33:19.109Z,1.50
2023-04-29T15:36:01.760Z,1.17
2023-04-29T15:38:44.344Z,1.10
2023-04-29T15:41:27.012Z,1.00
2023-04-29T15:44:09.677Z,1.23
2023-04-29T15:46:53.634Z,1.30
2023-04-29T15:49:36.265Z,1.40
2023-04-29T15:52:19.184Z,0.98
2023-04-29T15:55:01.854Z,1.20
2023-04-29T15:57:44.498Z,1.30
2023-04-29T16:00:27.197Z,1.30
2023-04-29T16:03:11.309Z,1.33
2023-04-29T16:05:54.100Z,0.90
2023-04-29T16:08:36.812Z,0.90
2023-04-29T16:11:19.454Z,1.15
2023-04-29T16:14:03.554Z,1.20
2023-04-29T16:16:46.303Z,1.15
2023-04-29T16:19:30.299Z,1.35
2023-04-29T16:22:12.950Z,1.10
2023-04-29T16:24:55.622Z,1.05
2023-04-29T16:27:38.373Z,1.20
2023-04-29T16:30:21.115Z,1.20
2023-04-29T16:33:03.829Z,1.48
2023-04-29T16:35:47.885Z,1.30
2023-04-29T16:38:30.457Z,1.35
2023-04-29T16:41:13.188Z,1.20
2023-04-29T16:43:55.814Z,1.60
2023-04-29T16:46:38.517Z,1.20
2023-04-29T16:49:25.048Z,1.23
2023-04-29T16:52:09.053Z,1.38
2023-04-29T16:54:51.679Z,0.98
2023-04-29T16:57:34.337Z,1.38
2023-04-29T17:00:17.384Z,1.20
2023-04-29T17:03:00.981Z,1.02
2023-04-29T17:05:43.656Z,1.00
2023-04-29T17:08:27.778Z,1.20
2023-04-29T17:11:10.431Z,1.08
2023-04-29T17:13:53.064Z,1.00
2023-04-29T17:16:35.708Z,1.13
2023-04-29T17:19:18.351Z,0.90
2023-04-29T17:22:01.006Z,1.08
2023-04-29T17:24:46.058Z,1.00
2023-04-29T17:27:28.670Z,1.00
2023-04-29T17:30:11.673Z,1.00
2023-04-29T17:32:54.536Z,0.98
2023-04-29T17:35:37.284Z,0.90
2023-04-29T17:38:20.071Z,0.90
2023-04-29T17:41:04.072Z,0.70
2023-04-29T17:43:47.134Z,0.98
2023-04-29T17:46:30.638Z,0.90
2023-04-29T17:49:13.322Z,0.98
2023-04-29T17:51:55.956Z,0.93
2023-04-29T17:54:39.405Z,0.80
2023-04-29T17:57:23.402Z,1.08
2023-04-29T18:00:07.413Z,0.63
2023-04-29T18:02:50.218Z,0.82
2023-04-29T18:05:32.944Z,1.20
2023-04-29T18:08:15.582Z,0.82
2023-04-29T18:10:58.213Z,0.70
2023-04-29T18:13:42.426Z,0.80
2023-04-29T18:16:26.066Z,0.80
2023-04-29T18:19:08.746Z,0.90
2023-04-29T18:21:51.367Z,0.90
2023-04-29T18:24:33.998Z,1.15
2023-04-29T18:27:16.662Z,1.20
2023-04-29T18:30:00.772Z,0.70
2023-04-29T18:32:43.437Z,1.08
2023-04-29T18:35:26.134Z,1.10
2023-04-29T18:38:10.661Z,1.10
2023-04-29T18:40:53.246Z,1.17
2023-04-29T18:43:35.882Z,0.88
2023-04-29T18:46:19.880Z,0.82
2023-04-29T18:49:02.650Z,1.00
2023-04-29T18:51:46.665Z,1.10
2023-04-29T18:54:29.355Z,0.90
2023-04-29T18:57:12.166Z,1.15
2023-04-29T18:59:55.075Z,1.17
2023-04-29T19:02:39.208Z,1.15
2023-04-29T19:05:21.899Z,1.00
2023-04-29T19:08:04.790Z,1.13
2023-04-29T19:10:47.447Z,0.85
2023-04-29T19:13:30.106Z,0.90
2023-04-29T19:16:12.786Z,1.13
2023-04-29T19:18:56.809Z,1.00
2023-04-29T19:21:39.494Z,1.67
2023-04-29T19:24:22.090Z,1.13
2023-04-29T19:27:05.994Z,1.17
2023-04-29T19:29:48.630Z,0.80
2023-04-29T19:32:31.261Z,1.15
2023-04-29T19:35:15.515Z,1.02
2023-04-29T19:37:58.193Z,0.80
2023-04-29T19:40:40.862Z,1.17
2023-04-29T19:43:23.576Z,0.90
2023-04-29T19:46:06.624Z,0.80
2023-04-29T19:48:49.396Z,0.90
2023-04-29T19:51:33.440Z,0.90
2023-04-29T19:54:16.842Z,1.10
2023-04-29T19:56:59.452Z,0.90
2023-04-29T19:59:42.123Z,0.98
2023-04-29T20:02:24.843Z,1.08
2023-04-29T20:05:08.686Z,0.75
2023-04-29T20:07:53.839Z,0.77
2023-04-29T20:10:36.486Z,1.20
2023-04-29T20:13:19.085Z,1.05
2023-04-29T20:16:01.792Z,1.10
2023-04-29T20:18:44.532Z,1.20
2023-04-29T20:21:27.520Z,0.90
2023-04-29T20:24:11.588Z,1.25
2023-04-29T20:26:54.203Z,1.00
2023-04-29T20:29:36.859Z,1.00
2023-04-29T20:32:19.614Z,0.93
2023-04-29T20:35:02.505Z,1.00
2023-04-29T20:37:45.924Z,0.98
2023-04-29T20:40:29.930Z,0.90
2023-04-29T20:43:12.710Z,0.98
2023-04-29T20:45:55.413Z,1.15
2023-04-29T20:48:38.512Z,1.08
2023-04-29T20:51:24.302Z,0.93
2023-04-29T20:54:06.940Z,1.10
2023-04-29T20:56:50.894Z,1.30
2023-04-29T20:59:33.687Z,1.13
2023-04-29T21:02:16.347Z,1.13
2023-04-29T21:04:59.867Z,1.13
2023-04-29T21:07:42.606Z,1.10
2023-04-29T21:10:25.208Z,1.33
2023-04-29T21:13:09.218Z,1.02
2023-04-29T21:15:53.558Z,1.15
2023-04-29T21:18:36.165Z,1.38
2023-04-29T21:21:18.849Z,1.10
2023-04-29T21:24:01.485Z,1.40
2023-04-29T21:26:45.195Z,1.48
2023-04-29T21:29:29.177Z,1.33
2023-04-29T21:32:11.818Z,1.30
2023-04-29T21:34:54.463Z,1.10
2023-04-29T21:37:37.141Z,1.50
2023-04-29T21:40:19.832Z,1.45
2023-04-29T21:43:02.715Z,1.20
2023-04-29T21:45:46.745Z,1.50
2023-04-29T21:48:29.388Z,1.42
2023-04-29T21:51:11.994Z,1.45
2023-04-29T21:53:54.608Z,1.25
2023-04-29T21:56:37.210Z,1.10
2023-04-29T21:59:19.802Z,1.80
2023-04-29T22:02:14.191Z,1.30
2023-04-29T22:04:56.881Z,1.30
2023-04-29T22:07:39.455Z,1.38
2023-04-29T22:10:22.089Z,1.40
2023-04-29T22:13:04.703Z,1.48
2023-04-29T22:15:47.256Z,1.52
2023-04-29T22:18:31.300Z,1.80
2023-04-29T22:21:15.361Z,1.50
2023-04-29T22:23:58.246Z,1.42
2023-04-29T22:26:40.856Z,1.75
2023-04-29T22:29:23.789Z,1.52
2023-04-29T22:32:06.532Z,1.48
2023-04-29T22:34:50.888Z,1.60
2023-04-29T22:37:36.308Z,1.50
2023-04-29T22:40:18.972Z,1.40
2023-04-29T22:43:01.623Z,1.88
2023-04-29T22:45:44.412Z,1.80
2023-04-29T22:48:28.055Z,1.70
2023-04-29T22:51:12.071Z,1.80
2023-04-29T22:53:54.696Z,1.60
2023-04-29T22:56:37.292Z,1.70
2023-04-29T22:59:19.953Z,2.40
2023-04-29T23:02:02.694Z,1.80
2023-04-29T23:04:45.357Z,1.80
2023-04-29T23:07:29.379Z,1.60
2023-04-29T23:10:12.071Z,1.80
2023-04-29T23:12:54.853Z,1.55
2023-04-29T23:15:37.516Z,1.58
2023-04-29T23:18:20.260Z,1.33
2023-04-29T23:21:03.506Z,1.40
2023-04-29T23:23:47.500Z,1.67
2023-04-29T23:26:30.442Z,1.77
2023-04-29T23:29:13.085Z,1.60
2023-04-29T23:31:55.666Z,1.58
2023-04-29T23:34:38.291Z,1.73
2023-04-29T23:37:20.908Z,1.85
2023-04-29T23:40:05.939Z,1.60
2023-04-29T23:42:48.578Z,1.70
2023-04-29T23:45:31.150Z,1.60
2023-04-29T23:48:13.735Z,1.52
2023-04-29T23:50:56.303Z,1.45
2023-04-29T23:53:39.932Z,1.60
2023-04-29T23:56:25.736Z,1.50
2023-04-29T23:59:08.385Z,1.67
